createdAt,value
2018-03-24T00:00:33.036Z,2.20
2018-03-24T00:02:37.266Z,2.20
2018-03-24T00:04:40.718Z,2.20
2018-03-24T00:06:44.090Z,2.30
2018-03-24T00:08:47.440Z,2.30
2018-03-24T00:10:51.545Z,2.30
2018-03-24T00:12:54.874Z,2.30
2018-03-24T00:14:58.226Z,2.30
2018-03-24T00:17:01.595Z,2.30
2018-03-24T00:19:04.923Z,2.30
2018-03-24T00:21:09.024Z,2.30
2018-03-24T00:23:13.126Z,2.30
2018-03-24T00:25:16.458Z,2.30
2018-03-24T00:27:19.844Z,2.30
2018-03-24T00:29:23.155Z,2.40
2018-03-24T00:31:26.500Z,2.40
2018-03-24T00:33:30.589Z,2.40
2018-03-24T00:35:33.928Z,2.40
2018-03-24T00:37:37.322Z,2.40
2018-03-24T00:39:40.670Z,2.40
2018-03-24T00:41:43.992Z,2.40
2018-03-24T00:43:47.317Z,2.40
2018-03-24T00:45:50.658Z,2.40
2018-03-24T00:47:54.800Z,2.40
2018-03-24T00:49:58.146Z,2.30
2018-03-24T00:52:01.483Z,2.40
2018-03-24T00:54:04.818Z,2.40
2018-03-24T00:56:08.171Z,2.40
2018-03-24T00:58:11.589Z,2.30
2018-03-24T01:00:14.959Z,2.30
2018-03-24T01:02:19.117Z,2.30
2018-03-24T01:04:23.208Z,2.20
2018-03-24T01:06:26.568Z,2.20
2018-03-24T01:08:29.958Z,2.20
2018-03-24T01:10:33.277Z,2.20
2018-03-24T01:12:36.627Z,2.10
2018-03-24T01:14:39.946Z,2.10
2018-03-24T01:16:43.333Z,2.00
2018-03-24T01:18:46.696Z,2.00
2018-03-24T01:20:50.032Z,2.00
2018-03-24T01:22:53.380Z,1.90
2018-03-24T01:24:56.702Z,1.90
2018-03-24T01:27:00.062Z,1.90
2018-03-24T01:29:03.425Z,1.90
2018-03-24T01:31:07.534Z,1.80
2018-03-24T01:33:11.627Z,1.80
2018-03-24T01:35:14.966Z,1.80
2018-03-24T01:37:18.289Z,1.70
2018-03-24T01:39:21.643Z,1.70
2018-03-24T01:41:25.045Z,1.70
2018-03-24T01:43:28.373Z,1.60
2018-03-24T01:45:31.888Z,1.50
2018-03-24T01:47:35.994Z,1.40
2018-03-24T01:49:39.361Z,1.40
2018-03-24T01:51:42.682Z,1.40
2018-03-24T01:53:52.972Z,1.30
2018-03-24T01:55:56.326Z,1.30
2018-03-24T01:57:59.681Z,1.30
2018-03-24T02:00:03.012Z,1.30
2018-03-24T02:02:06.379Z,1.30
2018-03-24T02:04:09.759Z,1.30
2018-03-24T02:06:13.144Z,1.30
2018-03-24T02:08:16.503Z,1.30
2018-03-24T02:10:19.888Z,1.20
2018-03-24T02:12:23.971Z,1.10
2018-03-24T02:14:28.079Z,1.00
2018-03-24T02:16:31.473Z,1.00
2018-03-24T02:18:35.596Z,1.00
2018-03-24T02:20:40.923Z,1.00
2018-03-24T02:22:45.043Z,1.00
2018-03-24T02:24:50.580Z,1.00
2018-03-24T02:26:54.806Z,1.10
2018-03-24T02:28:58.914Z,1.10
2018-03-24T02:31:02.261Z,1.10
2018-03-24T02:33:05.585Z,1.20
2018-03-24T02:35:08.939Z,1.20
2018-03-24T02:37:12.292Z,1.20
2018-03-24T02:39:15.656Z,1.20
2018-03-24T02:41:19.752Z,1.20
2018-03-24T02:43:23.063Z,1.20
2018-03-24T02:45:27.153Z,1.30
2018-03-24T02:47:30.546Z,1.30
2018-03-24T02:49:34.672Z,1.30
2018-03-24T02:51:38.766Z,1.30
2018-03-24T02:53:42.098Z,1.30
2018-03-24T02:55:45.442Z,1.30
2018-03-24T02:57:48.812Z,1.30
2018-03-24T02:59:52.133Z,1.40
2018-03-24T03:01:55.477Z,1.30
2018-03-24T03:03:58.810Z,1.40
2018-03-24T03:06:02.154Z,1.40
2018-03-24T03:08:05.537Z,1.40
2018-03-24T03:10:08.909Z,1.40
2018-03-24T03:12:12.259Z,1.40
2018-03-24T03:14:15.592Z,1.40
2018-03-24T03:16:19.680Z,1.40
2018-03-24T03:18:23.067Z,1.40
2018-03-24T03:20:26.398Z,1.40
2018-03-24T03:22:29.750Z,1.40
2018-03-24T03:24:33.074Z,1.50
2018-03-24T03:26:36.425Z,1.50
2018-03-24T03:28:39.805Z,1.50
2018-03-24T03:30:48.866Z,1.50
2018-03-24T03:32:52.183Z,1.50
2018-03-24T03:34:55.511Z,1.50
2018-03-24T03:36:58.866Z,1.50
2018-03-24T03:39:03.026Z,1.50
2018-03-24T03:41:06.365Z,1.50
2018-03-24T03:43:09.727Z,1.50
2018-03-24T03:45:13.088Z,1.50
2018-03-24T03:47:16.424Z,1.50
2018-03-24T03:49:20.571Z,1.50
2018-03-24T03:51:23.922Z,1.50
2018-03-24T03:53:27.268Z,1.50
2018-03-24T03:55:30.631Z,1.50
2018-03-24T03:57:33.967Z,1.50
2018-03-24T03:59:37.326Z,1.50
2018-03-24T04:01:40.652Z,1.40
2018-03-24T04:03:43.973Z,1.40
2018-03-24T04:05:48.080Z,1.40
2018-03-24T04:07:52.190Z,1.40
2018-03-24T04:09:56.335Z,1.30
2018-03-24T04:11:59.689Z,1.30
2018-03-24T04:14:03.803Z,1.30
2018-03-24T04:16:07.945Z,1.30
2018-03-24T04:18:11.274Z,1.30
2018-03-24T04:20:14.649Z,1.30
2018-03-24T04:22:17.993Z,1.30
2018-03-24T04:24:21.318Z,1.30
2018-03-24T04:26:24.675Z,1.30
2018-03-24T04:28:28.014Z,1.30
2018-03-24T04:30:31.371Z,1.30
2018-03-24T04:32:34.924Z,1.30
2018-03-24T04:34:38.258Z,1.30
2018-03-24T04:36:41.614Z,1.30
2018-03-24T04:38:44.971Z,1.40
2018-03-24T04:40:48.319Z,1.40
2018-03-24T04:42:51.725Z,1.40
2018-03-24T04:44:55.068Z,1.40
2018-03-24T04:46:58.434Z,1.40
2018-03-24T04:49:01.759Z,1.50
2018-03-24T04:51:05.088Z,1.50
2018-03-24T04:53:08.452Z,1.50
2018-03-24T04:55:12.544Z,1.50
2018-03-24T04:57:15.881Z,1.50
2018-03-24T04:59:19.214Z,1.50
2018-03-24T05:01:22.568Z,1.50
2018-03-24T05:03:25.925Z,1.60
2018-03-24T05:05:29.262Z,1.60
2018-03-24T05:07:32.593Z,1.60
2018-03-24T05:09:36.759Z,1.60
2018-03-24T05:11:40.821Z,1.60
2018-03-24T05:13:44.193Z,1.70
2018-03-24T05:15:47.530Z,1.60
2018-03-24T05:17:50.890Z,1.70
2018-03-24T05:19:54.213Z,1.70
2018-03-24T05:21:57.551Z,1.70
2018-03-24T05:24:00.937Z,1.80
2018-03-24T05:26:05.209Z,1.80
2018-03-24T05:28:08.557Z,1.80
2018-03-24T05:30:11.910Z,1.80
2018-03-24T05:32:15.239Z,1.80
2018-03-24T05:34:18.628Z,1.80
2018-03-24T05:36:21.998Z,1.90
2018-03-24T05:38:25.326Z,2.00
2018-03-24T05:40:28.687Z,2.00
2018-03-24T05:42:32.018Z,1.90
2018-03-24T05:44:35.398Z,2.00
2018-03-24T05:46:38.748Z,2.00
2018-03-24T05:48:42.172Z,2.00
2018-03-24T05:50:46.211Z,2.00
2018-03-24T05:52:50.328Z,2.00
2018-03-24T05:54:54.459Z,2.10
2018-03-24T05:56:57.803Z,2.10
2018-03-24T05:59:01.228Z,2.10
2018-03-24T06:01:04.599Z,2.10
2018-03-24T06:03:08.086Z,2.10
2018-03-24T06:05:11.445Z,2.20
2018-03-24T06:07:14.778Z,2.10
2018-03-24T06:09:18.886Z,2.10
2018-03-24T06:11:22.995Z,2.10
2018-03-24T06:13:27.102Z,2.10
2018-03-24T06:15:31.256Z,2.10
2018-03-24T06:17:34.588Z,2.10
2018-03-24T06:19:37.971Z,2.20
2018-03-24T06:21:41.300Z,2.10
2018-03-24T06:23:44.654Z,2.20
2018-03-24T06:25:48.008Z,2.20
2018-03-24T06:27:51.339Z,2.30
2018-03-24T06:29:54.678Z,2.30
2018-03-24T06:32:01.810Z,2.30
2018-03-24T06:34:05.185Z,2.40
2018-03-24T06:36:09.344Z,2.40
2018-03-24T06:38:13.458Z,2.50
2018-03-24T06:40:16.795Z,2.40
2018-03-24T06:42:20.146Z,2.50
2018-03-24T06:44:23.482Z,2.50
2018-03-24T06:46:26.882Z,2.60
2018-03-24T06:48:30.216Z,2.60
2018-03-24T06:50:33.557Z,2.60
2018-03-24T06:52:36.906Z,2.70
2018-03-24T06:54:40.242Z,2.70
2018-03-24T06:56:43.613Z,2.70
2018-03-24T06:58:46.938Z,2.80
2018-03-24T07:00:51.064Z,2.90
2018-03-24T07:02:54.413Z,2.90
2018-03-24T07:04:57.745Z,2.90
2018-03-24T07:07:01.117Z,3.00
2018-03-24T07:09:05.234Z,3.10
2018-03-24T07:11:08.609Z,3.00
2018-03-24T07:13:12.102Z,3.10
2018-03-24T07:15:15.499Z,3.20
2018-03-24T07:17:19.651Z,3.30
2018-03-24T07:19:23.894Z,3.30
2018-03-24T07:21:27.385Z,3.30
2018-03-24T07:23:31.591Z,3.40
2018-03-24T07:25:35.871Z,3.40
2018-03-24T07:27:39.284Z,3.40
2018-03-24T07:29:42.620Z,3.50
2018-03-24T07:31:46.017Z,3.60
2018-03-24T07:33:49.776Z,3.70
2018-03-24T07:35:53.178Z,3.80
2018-03-24T07:37:56.551Z,3.90
2018-03-24T07:40:00.652Z,3.90
2018-03-24T07:42:04.753Z,4.00
2018-03-24T07:44:08.085Z,4.00
2018-03-24T07:46:11.468Z,4.00
2018-03-24T07:48:14.844Z,4.10
2018-03-24T07:50:18.933Z,4.30
2018-03-24T07:52:23.031Z,4.40
2018-03-24T07:54:26.405Z,4.40
2018-03-24T07:56:29.746Z,4.60
2018-03-24T07:58:33.136Z,4.80
2018-03-24T08:00:37.238Z,5.10
2018-03-24T08:02:41.340Z,5.20
2018-03-24T08:04:45.804Z,5.40
2018-03-24T08:06:49.142Z,5.40
2018-03-24T08:08:53.282Z,5.60
2018-03-24T08:10:56.609Z,5.60
2018-03-24T08:12:59.936Z,5.70
2018-03-24T08:15:03.344Z,6.00
2018-03-24T08:17:06.701Z,6.30
2018-03-24T08:19:10.068Z,6.60
2018-03-24T08:21:13.382Z,6.80
2018-03-24T08:23:16.726Z,7.00
2018-03-24T08:25:20.085Z,7.20
2018-03-24T08:27:24.177Z,7.80
2018-03-24T08:29:27.550Z,7.80
2018-03-24T08:31:30.918Z,8.00
2018-03-24T08:33:34.242Z,8.20
2018-03-24T08:35:37.603Z,8.20
2018-03-24T08:37:40.975Z,8.00
2018-03-24T08:39:45.095Z,8.00
2018-03-24T08:41:48.425Z,8.00
2018-03-24T08:43:51.788Z,8.20
2018-03-24T08:45:55.351Z,8.20
2018-03-24T08:47:58.905Z,8.20
2018-03-24T08:50:03.097Z,8.40
2018-03-24T08:52:06.462Z,8.30
2018-03-24T08:54:09.818Z,8.50
2018-03-24T08:56:13.234Z,8.60
2018-03-24T08:58:17.365Z,8.80
2018-03-24T09:00:20.746Z,8.80
2018-03-24T09:02:24.157Z,9.00
2018-03-24T09:04:27.494Z,9.30
2018-03-24T09:06:30.888Z,9.60
2018-03-24T09:08:34.237Z,9.60
2018-03-24T09:10:37.572Z,9.40
2018-03-24T09:12:40.959Z,9.30
2018-03-24T09:14:44.308Z,9.50
2018-03-24T09:16:47.687Z,9.80
2018-03-24T09:18:51.781Z,9.50
2018-03-24T09:20:55.149Z,9.50
2018-03-24T09:22:58.514Z,9.20
2018-03-24T09:25:01.834Z,9.30
2018-03-24T09:27:05.234Z,9.40
2018-03-24T09:29:08.573Z,9.50
2018-03-24T09:31:11.917Z,9.70
2018-03-24T09:33:16.100Z,9.90
2018-03-24T09:35:19.421Z,9.90
2018-03-24T09:37:23.526Z,9.90
2018-03-24T09:39:26.859Z,9.90
2018-03-24T09:41:30.196Z,9.80
2018-03-24T09:43:33.576Z,9.90
2018-03-24T09:45:36.951Z,10.00
2018-03-24T09:47:40.287Z,10.20
2018-03-24T09:49:43.654Z,10.30
2018-03-24T09:51:47.013Z,10.40
2018-03-24T09:53:50.454Z,10.40
2018-03-24T09:55:54.585Z,10.50
2018-03-24T09:57:57.992Z,10.50
2018-03-24T10:00:01.374Z,10.40
2018-03-24T10:02:04.726Z,10.30
2018-03-24T10:04:08.078Z,10.70
2018-03-24T10:06:12.593Z,11.10
2018-03-24T10:08:15.963Z,11.40
2018-03-24T10:10:19.400Z,11.60
2018-03-24T10:12:22.756Z,11.60
2018-03-24T10:14:26.905Z,11.40
2018-03-24T10:16:30.261Z,11.40
2018-03-24T10:18:33.645Z,11.30
2018-03-24T10:23:19.855Z,11.50
2018-03-24T10:25:24.173Z,11.50
2018-03-24T10:27:27.538Z,11.60
2018-03-24T10:29:30.915Z,11.30
2018-03-24T10:31:34.282Z,11.20
2018-03-24T10:33:44.027Z,11.20
2018-03-24T10:35:47.397Z,10.90
2018-03-24T10:37:57.300Z,10.70
2018-03-24T10:40:01.445Z,11.20
2018-03-24T10:42:05.693Z,11.20
2018-03-24T10:44:09.027Z,11.70
2018-03-24T10:46:13.132Z,11.80
2018-03-24T10:48:17.248Z,11.90
2018-03-24T10:50:20.678Z,11.80
2018-03-24T10:52:24.028Z,11.90
2018-03-24T10:54:28.138Z,12.20
2018-03-24T10:56:32.279Z,12.80
2018-03-24T10:58:35.669Z,12.80
2018-03-24T11:00:39.044Z,13.10
2018-03-24T11:02:43.888Z,13.40
2018-03-24T11:04:48.151Z,13.30
2018-03-24T11:06:52.266Z,12.90
2018-03-24T11:08:55.644Z,12.90
2018-03-24T11:10:59.259Z,12.90
2018-03-24T11:13:03.413Z,13.20
2018-03-24T11:15:08.969Z,13.10
2018-03-24T11:17:13.255Z,13.50
2018-03-24T11:19:17.330Z,13.70
2018-03-24T11:21:21.300Z,13.40
2018-03-24T11:23:25.488Z,13.20
2018-03-24T11:25:28.871Z,13.20
2018-03-24T11:27:32.250Z,13.30
2018-03-24T11:29:36.356Z,13.10
2018-03-24T11:31:40.509Z,13.00
2018-03-24T11:33:43.905Z,13.00
2018-03-24T11:35:48.002Z,13.20
2018-03-24T11:37:51.574Z,13.20
2018-03-24T11:39:55.621Z,13.10
2018-03-24T11:41:59.506Z,12.60
2018-03-24T11:44:02.879Z,12.40
2018-03-24T11:46:07.610Z,12.60
2018-03-24T11:48:12.170Z,12.60
2018-03-24T11:50:15.533Z,12.80
2018-03-24T11:52:19.669Z,12.70
2018-03-24T11:54:35.081Z,12.60
2018-03-24T11:56:38.678Z,12.50
2018-03-24T11:58:42.187Z,12.30
2018-03-24T12:00:46.906Z,12.30
2018-03-24T12:02:50.358Z,12.30
2018-03-24T12:04:54.238Z,12.50
2018-03-24T12:06:57.656Z,12.30
2018-03-24T12:09:01.809Z,12.50
2018-03-24T12:11:05.183Z,12.40
2018-03-24T12:13:09.066Z,12.50
2018-03-24T12:15:12.484Z,12.60
2018-03-24T12:17:16.674Z,12.80
2018-03-24T12:19:20.021Z,12.80
2018-03-24T12:21:23.354Z,12.90
2018-03-24T12:23:26.779Z,13.30
2018-03-24T12:25:30.924Z,13.30
2018-03-24T12:27:34.314Z,13.30
2018-03-24T12:29:37.646Z,13.40
2018-03-24T12:31:40.985Z,13.30
2018-03-24T12:33:44.349Z,13.30
2018-03-24T12:35:47.719Z,13.50
2018-03-24T12:37:51.862Z,14.10
2018-03-24T12:39:55.396Z,14.10
2018-03-24T12:41:58.832Z,14.40
2018-03-24T12:44:02.230Z,14.20
2018-03-24T12:46:06.393Z,14.30
2018-03-24T12:48:09.707Z,14.30
2018-03-24T12:50:13.065Z,14.20
2018-03-24T12:52:16.382Z,14.20
2018-03-24T12:54:19.738Z,14.10
2018-03-24T12:56:23.095Z,14.40
2018-03-24T12:58:26.423Z,14.70
2018-03-24T13:00:29.858Z,15.00
2018-03-24T13:02:33.164Z,15.20
2018-03-24T13:04:37.313Z,14.80
2018-03-24T13:06:40.693Z,14.80
2018-03-24T13:08:44.061Z,14.80
2018-03-24T13:10:47.438Z,14.80
2018-03-24T13:12:50.805Z,14.40
2018-03-24T13:14:54.168Z,14.00
2018-03-24T13:16:57.538Z,13.80
2018-03-24T13:19:01.647Z,13.80
2018-03-24T13:21:05.778Z,14.20
2018-03-24T13:23:09.119Z,14.10
2018-03-24T13:25:12.546Z,14.20
2018-03-24T13:27:15.895Z,14.10
2018-03-24T13:29:20.290Z,14.00
2018-03-24T13:31:23.674Z,14.00
2018-03-24T13:33:27.046Z,14.30
2018-03-24T13:35:30.470Z,14.20
2018-03-24T13:37:33.897Z,14.40
2018-03-24T13:39:37.265Z,14.30
2018-03-24T13:41:40.770Z,14.00
2018-03-24T13:43:45.050Z,13.70
2018-03-24T13:45:48.654Z,13.10
2018-03-24T13:47:52.158Z,12.90
2018-03-24T13:49:56.027Z,12.70
2018-03-24T13:51:59.441Z,12.40
2018-03-24T13:54:03.593Z,12.40
2018-03-24T13:56:07.261Z,12.40
2018-03-24T13:58:10.607Z,12.40
2018-03-24T14:00:15.724Z,12.50
2018-03-24T14:02:19.080Z,12.30
2018-03-24T14:04:22.427Z,12.20
2018-03-24T14:06:26.615Z,12.20
2018-03-24T14:08:30.000Z,12.20
2018-03-24T14:10:34.089Z,11.50
2018-03-24T14:12:37.467Z,11.50
2018-03-24T14:14:40.884Z,11.50
2018-03-24T14:16:44.257Z,11.70
2018-03-24T14:18:47.609Z,11.70
2018-03-24T14:20:53.580Z,12.00
2018-03-24T14:22:56.924Z,12.00
2018-03-24T14:25:00.313Z,12.00
2018-03-24T14:27:03.685Z,11.90
2018-03-24T14:29:07.107Z,11.90
2018-03-24T14:31:10.450Z,12.20
2018-03-24T14:33:13.853Z,12.40
2018-03-24T14:35:17.183Z,12.50
2018-03-24T14:37:20.582Z,12.50
2018-03-24T14:39:23.974Z,12.70
2018-03-24T14:41:28.102Z,13.10
2018-03-24T14:43:32.192Z,13.10
2018-03-24T14:45:35.587Z,13.10
2018-03-24T14:47:39.752Z,12.40
2018-03-24T14:49:43.253Z,12.40
2018-03-24T14:51:47.437Z,12.00
2018-03-24T14:53:50.822Z,11.90
2018-03-24T14:55:54.191Z,11.70
2018-03-24T14:57:57.580Z,11.40
2018-03-24T15:00:01.717Z,11.30
2018-03-24T15:02:05.102Z,11.20
2018-03-24T15:04:08.451Z,11.40
2018-03-24T15:06:11.842Z,11.30
2018-03-24T15:08:15.254Z,11.40
2018-03-24T15:10:18.599Z,11.50
2018-03-24T15:12:21.926Z,11.60
2018-03-24T15:14:25.286Z,11.80
2018-03-24T15:16:28.667Z,12.00
2018-03-24T15:18:32.022Z,12.10
2018-03-24T15:20:36.138Z,12.50
2018-03-24T15:22:40.267Z,12.50
2018-03-24T15:24:43.632Z,12.50
2018-03-24T15:26:47.808Z,12.40
2018-03-24T15:29:02.898Z,12.30
2018-03-24T15:31:13.955Z,12.40
2018-03-24T15:33:29.278Z,12.60
2018-03-24T15:35:33.511Z,12.70
2018-03-24T15:37:36.864Z,12.50
2018-03-24T15:39:41.034Z,12.60
2018-03-24T15:41:44.432Z,12.50
2018-03-24T15:43:48.637Z,12.50
2018-03-24T15:45:51.986Z,12.50
2018-03-24T15:47:55.360Z,12.40
2018-03-24T15:49:58.746Z,12.40
2018-03-24T15:52:02.277Z,12.40
2018-03-24T15:54:09.669Z,12.40
2018-03-24T15:56:13.323Z,12.50
2018-03-24T15:58:16.670Z,12.30
2018-03-24T16:00:20.062Z,12.30
2018-03-24T16:02:23.452Z,12.20
2018-03-24T16:04:26.816Z,12.00
2018-03-24T16:06:30.190Z,11.90
2018-03-24T16:08:34.333Z,11.80
2018-03-24T16:10:37.696Z,11.70
2018-03-24T16:12:41.850Z,11.90
2018-03-24T16:14:45.228Z,11.90
2018-03-24T16:16:48.567Z,11.80
2018-03-24T16:18:51.928Z,11.70
2018-03-24T16:20:55.280Z,11.60
2018-03-24T16:22:59.448Z,11.50
2018-03-24T16:25:02.866Z,11.50
2018-03-24T16:27:06.194Z,11.30
2018-03-24T16:29:09.566Z,11.10
2018-03-24T16:31:12.922Z,11.00
2018-03-24T16:33:16.303Z,11.00
2018-03-24T16:35:21.001Z,10.90
2018-03-24T16:37:24.375Z,11.00
2018-03-24T16:39:27.781Z,10.90
2018-03-24T16:41:31.127Z,10.80
2018-03-24T16:43:35.247Z,10.50
2018-03-24T16:45:39.402Z,10.50
2018-03-24T16:47:42.832Z,10.50
2018-03-24T16:49:46.279Z,10.50
2018-03-24T16:51:49.667Z,10.50
2018-03-24T16:53:53.087Z,10.50
2018-03-24T16:55:56.470Z,10.60
2018-03-24T16:57:59.790Z,10.50
2018-03-24T17:00:03.201Z,10.50
2018-03-24T17:02:06.519Z,10.60
2018-03-24T17:04:09.837Z,10.60
2018-03-24T17:06:13.230Z,10.50
2018-03-24T17:08:16.614Z,10.40
2018-03-24T17:10:19.994Z,10.40
2018-03-24T17:12:23.333Z,10.40
2018-03-24T17:14:26.700Z,10.40
2018-03-24T17:16:30.066Z,10.30
2018-03-24T17:18:33.387Z,10.20
2018-03-24T17:20:36.838Z,10.20
2018-03-24T17:22:40.228Z,10.00
2018-03-24T17:24:43.576Z,9.90
2018-03-24T17:26:46.930Z,9.80
2018-03-24T17:28:50.281Z,9.70
2018-03-24T17:30:54.420Z,9.70
2018-03-24T17:32:57.782Z,9.60
2018-03-24T17:35:01.125Z,9.60
2018-03-24T17:37:04.489Z,9.60
2018-03-24T17:39:08.351Z,9.50
2018-03-24T17:41:12.457Z,9.40
2018-03-24T17:43:16.611Z,9.50
2018-03-24T17:45:19.970Z,9.50
2018-03-24T17:47:24.117Z,9.40
2018-03-24T17:49:27.496Z,9.30
2018-03-24T17:51:31.647Z,9.30
2018-03-24T17:53:34.985Z,9.30
2018-03-24T17:55:38.322Z,9.20
2018-03-24T17:57:41.704Z,9.20
2018-03-24T17:59:45.103Z,9.20
2018-03-24T18:01:49.006Z,9.10
2018-03-24T18:03:52.848Z,9.10
2018-03-24T18:05:56.422Z,9.10
2018-03-24T18:07:59.786Z,9.10
2018-03-24T18:10:03.186Z,9.00
2018-03-24T18:12:06.843Z,8.90
2018-03-24T18:14:10.977Z,8.80
2018-03-24T18:16:15.430Z,8.80
2018-03-24T18:18:18.780Z,8.80
2018-03-24T18:20:22.192Z,8.70
2018-03-24T18:22:25.633Z,8.70
2018-03-24T18:24:28.996Z,8.60
2018-03-24T18:26:33.067Z,8.60
2018-03-24T18:28:37.253Z,8.50
2018-03-24T18:30:42.279Z,8.50
2018-03-24T18:32:46.465Z,8.40
2018-03-24T18:34:49.881Z,8.40
2018-03-24T18:36:53.219Z,8.30
2018-03-24T18:38:56.562Z,8.20
2018-03-24T18:40:59.914Z,8.10
2018-03-24T18:43:03.323Z,8.10
2018-03-24T18:45:06.755Z,8.00
2018-03-24T18:47:10.095Z,8.00
2018-03-24T18:49:13.460Z,7.90
2018-03-24T18:51:17.548Z,7.80
2018-03-24T18:53:21.706Z,7.70
2018-03-24T18:55:25.035Z,7.70
2018-03-24T18:57:28.379Z,7.70
2018-03-24T18:59:31.711Z,7.60
2018-03-24T19:01:35.912Z,7.40
2018-03-24T19:03:39.348Z,7.40
2018-03-24T19:05:43.433Z,7.30
2018-03-24T19:07:46.784Z,7.20
2018-03-24T19:09:50.136Z,7.20
2018-03-24T19:11:53.499Z,7.10
2018-03-24T19:13:56.902Z,7.10
2018-03-24T19:18:09.979Z,7.00
2018-03-24T19:20:13.332Z,7.00
2018-03-24T19:22:16.704Z,6.90
2018-03-24T19:24:20.687Z,6.80
2018-03-24T19:26:24.038Z,6.80
2018-03-24T19:28:27.417Z,6.70
2018-03-24T19:30:30.765Z,6.70
2018-03-24T19:32:34.418Z,6.70
2018-03-24T19:34:37.788Z,6.70
2018-03-24T19:36:41.951Z,6.60
2018-03-24T19:38:45.358Z,6.60
2018-03-24T19:40:48.739Z,6.60
2018-03-24T19:42:52.198Z,6.60
2018-03-24T19:44:57.037Z,6.50
2018-03-24T19:47:00.391Z,6.50
2018-03-24T19:49:04.612Z,6.40
2018-03-24T19:51:08.750Z,6.30
2018-03-24T19:53:12.851Z,6.30
2018-03-24T19:55:16.234Z,6.20
2018-03-24T19:57:20.370Z,6.10
2018-03-24T19:59:24.654Z,6.10
2018-03-24T20:01:29.691Z,6.00
2018-03-24T20:03:35.686Z,6.00
2018-03-24T20:05:39.049Z,6.00
2018-03-24T20:07:42.641Z,5.90
2018-03-24T20:09:46.105Z,5.80
2018-03-24T20:11:50.333Z,5.70
2018-03-24T20:13:54.462Z,5.60
2018-03-24T20:15:57.837Z,5.60
2018-03-24T20:18:01.944Z,5.50
2018-03-24T20:20:07.093Z,5.50
2018-03-24T20:22:10.474Z,5.50
2018-03-24T20:24:13.849Z,5.50
2018-03-24T20:26:17.260Z,5.50
2018-03-24T20:28:20.601Z,5.40
2018-03-24T20:30:23.973Z,5.30
2018-03-24T20:32:27.317Z,5.30
2018-03-24T20:34:30.681Z,5.20
2018-03-24T20:36:34.057Z,5.20
2018-03-24T20:38:37.415Z,5.20
2018-03-24T20:42:51.152Z,5.00
2018-03-24T20:44:55.290Z,4.90
2018-03-24T20:46:58.664Z,4.90
2018-03-24T20:49:03.152Z,4.90
2018-03-24T20:51:07.372Z,4.80
2018-03-24T20:53:12.699Z,4.70
2018-03-24T20:55:16.052Z,4.70
2018-03-24T20:57:20.995Z,4.70
2018-03-24T20:59:24.371Z,4.70
2018-03-24T21:01:27.769Z,4.60
2018-03-24T21:03:31.139Z,4.60
2018-03-24T21:05:34.557Z,4.50
2018-03-24T21:07:37.954Z,4.50
2018-03-24T21:09:41.352Z,4.50
2018-03-24T21:11:44.690Z,4.40
2018-03-24T21:13:48.824Z,4.30
2018-03-24T21:15:53.243Z,4.30
2018-03-24T21:17:56.700Z,4.30
2018-03-24T21:20:01.125Z,4.20
2018-03-24T21:22:05.136Z,4.20
2018-03-24T21:24:10.280Z,4.20
2018-03-24T21:26:13.610Z,4.10
2018-03-24T21:28:17.122Z,4.20
2018-03-24T21:30:20.531Z,4.10
2018-03-24T21:32:24.662Z,4.10
2018-03-24T21:34:28.089Z,4.10
2018-03-24T21:36:32.425Z,4.00
2018-03-24T21:38:37.122Z,4.00
2018-03-24T21:40:41.402Z,3.90
2018-03-24T21:42:44.761Z,3.90
2018-03-24T21:44:48.404Z,3.80
2018-03-24T21:46:51.738Z,3.80
2018-03-24T21:48:55.305Z,3.80
2018-03-24T21:50:58.989Z,3.70
2018-03-24T21:53:04.188Z,3.60
2018-03-24T21:55:07.783Z,3.60
2018-03-24T21:57:12.145Z,3.60
2018-03-24T21:59:16.381Z,3.50
2018-03-24T22:01:21.468Z,3.50
2018-03-24T22:03:25.609Z,3.40
2018-03-24T22:05:29.020Z,3.40
2018-03-24T22:07:32.411Z,3.40
2018-03-24T22:09:35.877Z,3.40
2018-03-24T22:11:39.218Z,3.30
2018-03-24T22:13:42.566Z,3.30
2018-03-24T22:15:45.910Z,3.30
2018-03-24T22:17:49.284Z,3.30
2018-03-24T22:19:52.679Z,3.20
2018-03-24T22:21:56.923Z,3.20
2018-03-24T22:24:00.381Z,3.20
2018-03-24T22:26:03.794Z,3.20
2018-03-24T22:28:07.137Z,3.20
2018-03-24T22:30:10.529Z,3.10
2018-03-24T22:32:14.128Z,3.10
2018-03-24T22:34:19.234Z,3.10
2018-03-24T22:36:22.737Z,3.00
2018-03-24T22:38:26.678Z,3.00
2018-03-24T22:40:30.309Z,3.00
2018-03-24T22:42:33.789Z,2.90
2018-03-24T22:44:38.560Z,2.80
2018-03-24T22:46:42.862Z,2.80
2018-03-24T22:48:46.957Z,2.80
2018-03-24T22:50:50.328Z,2.80
2018-03-24T22:52:53.663Z,2.80
2018-03-24T22:54:56.989Z,2.70
2018-03-24T22:57:00.353Z,2.80
2018-03-24T22:59:03.928Z,2.70
2018-03-24T23:01:08.291Z,2.70
2018-03-24T23:03:11.684Z,2.70
2018-03-24T23:05:15.030Z,2.60
2018-03-24T23:07:19.169Z,2.60
2018-03-24T23:09:23.350Z,2.60
2018-03-24T23:11:26.947Z,2.50
2018-03-24T23:13:31.077Z,2.50
2018-03-24T23:15:35.176Z,2.50
2018-03-24T23:17:39.297Z,2.50
2018-03-24T23:19:42.659Z,2.50
2018-03-24T23:21:45.992Z,2.50
2018-03-24T23:23:49.354Z,2.40
2018-03-24T23:25:53.452Z,2.40
2018-03-24T23:27:56.835Z,2.40
2018-03-24T23:30:00.176Z,2.40
2018-03-24T23:32:03.506Z,2.30
2018-03-24T23:34:06.888Z,2.30
2018-03-24T23:36:10.332Z,2.30
2018-03-24T23:38:14.546Z,2.30
2018-03-24T23:40:18.639Z,2.30
2018-03-24T23:42:22.029Z,2.30
2018-03-24T23:44:25.387Z,2.20
2018-03-24T23:46:28.787Z,2.20
2018-03-24T23:48:32.248Z,2.20
2018-03-24T23:50:36.974Z,2.10
2018-03-24T23:52:41.569Z,2.10
2018-03-24T23:54:44.916Z,2.10
2018-03-24T23:56:49.254Z,2.10
2018-03-24T23:58:52.653Z,2.00
